Wetterdaten: Woche 30.11.09 - 06.12.09 (KW49)
Datum Zeit Temperatur Luftfeuchte Luftdruck Niederschlag Wind Richtung Sonnenschein Solar Taupunkt Windchill Windben
30.11.2009 00:00 4.7 C 90 % 997.6 hPa 0.0 l/m 7.1 km/h (2 Bft) W-NW 0.00 h 0 W/m 3.2 C 3.3 C 11.9 km/h (2 Bft)
30.11.2009 01:00 6.3 C 81 % 997.1 hPa 0.0 l/m 5.3 km/h (1 Bft) W-NW 0.00 h 0 W/m 3.4 C 5.4 C 9.3 km/h (2 Bft)
30.11.2009 02:00 5.8 C 81 % 997.1 hPa 0.0 l/m 5.8 km/h (1 Bft) W-NW 0.00 h 0 W/m 2.7 C 4.8 C 9.9 km/h (2 Bft)
30.11.2009 03:00 5.2 C 83 % 996.5 hPa 0.0 l/m 2.9 km/h (1 Bft) SW 0.00 h 0 W/m 2.6 C 4.8 C 5.7 km/h (1 Bft)
30.11.2009 04:00 5.0 C 85 % 996.5 hPa 0.6 l/m 1.4 km/h (1 Bft) SW 0.00 h 0 W/m 2.6 C 4.9 C 3.2 km/h (1 Bft)
30.11.2009 05:00 4.5 C 88 % 997.2 hPa 2.0 l/m 2.3 km/h (1 Bft) W 0.00 h 0 W/m 2.7 C 4.2 C 4.9 km/h (1 Bft)
30.11.2009 06:00 4.2 C 90 % 997.4 hPa 1.4 l/m 1.2 km/h (1 Bft) SO 0.00 h 0 W/m 2.8 C 4.1 C 3.1 km/h (1 Bft)
30.11.2009 07:00 3.9 C 92 % 997.8 hPa 1.2 l/m 1.9 km/h (1 Bft) S-SO 0.00 h 0 W/m 2.7 C 3.9 C 4.8 km/h (1 Bft)
30.11.2009 08:00 3.6 C 93 % 998.0 hPa 1.0 l/m 1.6 km/h (1 Bft) SW 0.00 h 8 W/m 2.6 C 3.6 C 3.9 km/h (1 Bft)
30.11.2009 09:00 3.4 C 94 % 998.4 hPa 1.2 l/m 2.0 km/h (1 Bft) S-SW 0.00 h 16 W/m 2.5 C 3.4 C 4.9 km/h (1 Bft)
30.11.2009 10:00 3.1 C 94 % 999.1 hPa 1.2 l/m 2.3 km/h (1 Bft) S 0.00 h 24 W/m 2.3 C 2.9 C 5.1 km/h (1 Bft)
30.11.2009 11:00 2.8 C 94 % 999.1 hPa 0.6 l/m 2.3 km/h (1 Bft) S-SW 0.00 h 37 W/m 1.9 C 2.6 C 5.2 km/h (1 Bft)
30.11.2009 12:00 2.5 C 95 % 998.7 hPa 0.6 l/m 2.2 km/h (1 Bft) S-SO 0.00 h 41 W/m 1.8 C 2.4 C 5.0 km/h (1 Bft)
30.11.2009 13:00 2.4 C 95 % 998.7 hPa 0.8 l/m 1.7 km/h (1 Bft) S-SO 0.00 h 32 W/m 1.7 C 2.3 C 3.7 km/h (1 Bft)
30.11.2009 14:00 2.1 C 95 % 999.0 hPa 1.2 l/m 0.9 km/h (0 Bft) SO 0.00 h 15 W/m 1.4 C 2.1 C 2.6 km/h (1 Bft)
30.11.2009 15:00 1.2 C 95 % 999.4 hPa 0.4 l/m 0.3 km/h (0 Bft) SO 0.00 h 9 W/m 0.5 C 1.2 C 0.9 km/h (0 Bft)
30.11.2009 16:00 0.7 C 95 % 999.7 hPa 0.8 l/m 0.0 km/h (0 Bft) N 0.00 h 0 W/m -0.0 C 0.7 C 0.0 km/h (0 Bft)
30.11.2009 17:00 0.5 C 95 % 1000.1 hPa 1.8 l/m 0.1 km/h (0 Bft) SO 0.00 h 0 W/m -0.2 C 0.5 C 0.2 km/h (0 Bft)
30.11.2009 18:00 0.5 C 95 % 1000.5 hPa 1.6 l/m 0.0 km/h (0 Bft) N 0.00 h 0 W/m -0.2 C 0.5 C 0.1 km/h (0 Bft)
30.11.2009 19:00 0.4 C 96 % 1001.3 hPa 1.6 l/m 0.0 km/h (0 Bft) N 0.00 h 0 W/m -0.2 C 0.4 C 0.1 km/h (0 Bft)
30.11.2009 20:00 0.4 C 96 % 1001.8 hPa 1.2 l/m 0.0 km/h (0 Bft) N 0.00 h 0 W/m -0.2 C 0.4 C 0.0 km/h (0 Bft)
30.11.2009 21:00 0.5 C 96 % 1002.0 hPa 0.4 l/m 0.3 km/h (0 Bft) SO 0.00 h 0 W/m -0.1 C 0.5 C 0.5 km/h (0 Bft)
30.11.2009 22:00 0.6 C 96 % 1002.8 hPa 0.6 l/m 0.1 km/h (0 Bft) SO 0.00 h 0 W/m 0.1 C 0.6 C 0.5 km/h (0 Bft)
30.11.2009 23:00 0.7 C 97 % 1003.4 hPa 0.6 l/m 0.0 km/h (0 Bft) N 0.00 h 0 W/m 0.3 C 0.7 C 0.1 km/h (0 Bft)
01.12.2009 00:00 0.7 C 97 % 1003.4 hPa 0.2 l/m 0.2 km/h (0 Bft) SO 0.00 h 0 W/m 0.3 C 0.7 C 0.8 km/h (0 Bft)
01.12.2009 01:00 0.8 C 97 % 1003.7 hPa 0.0 l/m 0.2 km/h (0 Bft) SO 0.00 h 0 W/m 0.4 C 0.8 C 1.0 km/h (0 Bft)
01.12.2009 02:00 1.0 C 97 % 1004.4 hPa 0.0 l/m 1.1 km/h (1 Bft) S 0.00 h 0 W/m 0.6 C 1.0 C 2.6 km/h (1 Bft)
01.12.2009 03:00 1.0 C 97 % 1004.8 hPa 0.2 l/m 0.3 km/h (0 Bft) S 0.00 h 0 W/m 0.6 C 1.0 C 1.1 km/h (1 Bft)
01.12.2009 04:00 1.0 C 97 % 1005.3 hPa 0.4 l/m 0.6 km/h (0 Bft) S 0.00 h 0 W/m 0.6 C 1.0 C 1.7 km/h (1 Bft)
01.12.2009 05:00 1.0 C 97 % 1005.9 hPa 0.6 l/m 0.1 km/h (0 Bft) S-SO 0.00 h 0 W/m 0.6 C 1.0 C 1.0 km/h (0 Bft)
01.12.2009 06:00 1.0 C 98 % 1006.7 hPa 0.6 l/m 0.1 km/h (0 Bft) S-SO 0.00 h 0 W/m 0.7 C 1.0 C 0.9 km/h (0 Bft)
01.12.2009 07:00 1.1 C 98 % 1007.3 hPa 0.2 l/m 0.4 km/h (0 Bft) S-SO 0.00 h 0 W/m 0.8 C 1.1 C 1.6 km/h (1 Bft)
01.12.2009 08:00 1.2 C 98 % 1008.2 hPa 0.4 l/m 0.2 km/h (0 Bft) S-SO 0.00 h 18 W/m 0.9 C 1.2 C 0.8 km/h (0 Bft)
01.12.2009 09:00 1.6 C 98 % 1009.0 hPa 0.0 l/m 1.0 km/h (0 Bft) S-SO 0.00 h 40 W/m 1.4 C 1.6 C 2.6 km/h (1 Bft)
01.12.2009 10:00 2.0 C 98 % 1009.8 hPa 0.0 l/m 2.9 km/h (1 Bft) S-SO 0.00 h 47 W/m 1.8 C 1.8 C 5.8 km/h (2 Bft)
01.12.2009 11:00 2.4 C 98 % 1010.3 hPa 0.0 l/m 4.1 km/h (1 Bft) S-SO 0.00 h 78 W/m 2.2 C 1.7 C 7.7 km/h (2 Bft)
01.12.2009 12:00 2.8 C 98 % 1010.6 hPa 0.0 l/m 4.5 km/h (1 Bft) S-SO 0.00 h 77 W/m 2.5 C 2.0 C 8.1 km/h (2 Bft)
01.12.2009 13:00 3.1 C 98 % 1010.8 hPa 0.2 l/m 4.5 km/h (1 Bft) S-SO 0.00 h 86 W/m 2.8 C 2.3 C 8.4 km/h (2 Bft)
01.12.2009 14:00 3.1 C 97 % 1011.0 hPa 0.0 l/m 3.6 km/h (1 Bft) S-SO 0.00 h 67 W/m 2.7 C 2.7 C 6.8 km/h (2 Bft)
01.12.2009 15:00 3.3 C 97 % 1011.4 hPa 0.0 l/m 3.6 km/h (1 Bft) S 0.18 h 64 W/m 2.9 C 2.9 C 7.1 km/h (2 Bft)
01.12.2009 16:00 3.1 C 96 % 1012.1 hPa 0.0 l/m 2.7 km/h (1 Bft) S-SO 0.00 h 13 W/m 2.6 C 2.9 C 6.0 km/h (2 Bft)
01.12.2009 17:00 2.9 C 96 % 1013.0 hPa 0.0 l/m 4.1 km/h (1 Bft) O-SO 0.00 h 0 W/m 2.4 C 2.4 C 6.5 km/h (2 Bft)
01.12.2009 18:00 2.8 C 96 % 1013.8 hPa 0.4 l/m 2.9 km/h (1 Bft) SO 0.00 h 0 W/m 2.2 C 2.5 C 5.3 km/h (1 Bft)
01.12.2009 19:00 2.8 C 96 % 1014.3 hPa 0.2 l/m 2.1 km/h (1 Bft) S-SO 0.00 h 0 W/m 2.2 C 2.6 C 4.6 km/h (1 Bft)
01.12.2009 20:00 2.7 C 96 % 1014.4 hPa 0.0 l/m 1.8 km/h (1 Bft) S-SO 0.00 h 0 W/m 2.1 C 2.5 C 4.0 km/h (1 Bft)
01.12.2009 21:00 2.5 C 96 % 1014.7 hPa 0.0 l/m 2.5 km/h (1 Bft) S-SO 0.00 h 0 W/m 2.0 C 2.3 C 4.9 km/h (1 Bft)
01.12.2009 22:00 2.4 C 96 % 1015.0 hPa 0.0 l/m 2.8 km/h (1 Bft) S-SO 0.00 h 0 W/m 1.8 C 2.2 C 5.0 km/h (1 Bft)
01.12.2009 23:00 2.3 C 97 % 1015.4 hPa 0.0 l/m 0.7 km/h (0 Bft) SO 0.00 h 0 W/m 1.8 C 2.3 C 2.0 km/h (1 Bft)
02.12.2009 00:00 2.4 C 97 % 1015.2 hPa 0.0 l/m 1.6 km/h (1 Bft) SO 0.00 h 0 W/m 1.9 C 2.3 C 3.2 km/h (1 Bft)
02.12.2009 01:00 2.4 C 97 % 1015.3 hPa 0.0 l/m 0.7 km/h (0 Bft) SO 0.00 h 0 W/m 2.0 C 2.4 C 1.6 km/h (1 Bft)
02.12.2009 02:00 2.1 C 97 % 1015.4 hPa 0.0 l/m 3.2 km/h (1 Bft) SO 0.00 h 0 W/m 1.6 C 1.8 C 5.3 km/h (1 Bft)
02.12.2009 03:00 1.7 C 97 % 1015.4 hPa 0.0 l/m 3.4 km/h (1 Bft) O-SO 0.00 h 0 W/m 1.3 C 1.1 C 5.6 km/h (1 Bft)
02.12.2009 04:00 1.7 C 97 % 1015.4 hPa 0.0 l/m 0.9 km/h (0 Bft) S-SO 0.00 h 0 W/m 1.3 C 1.7 C 2.2 km/h (1 Bft)
02.12.2009 05:00 1.8 C 97 % 1015.4 hPa 0.0 l/m 1.5 km/h (1 Bft) SO 0.00 h 0 W/m 1.4 C 1.7 C 3.0 km/h (1 Bft)
02.12.2009 06:00 1.8 C 97 % 1015.2 hPa 0.0 l/m 0.6 km/h (0 Bft) SO 0.00 h 0 W/m 1.4 C 1.8 C 1.9 km/h (1 Bft)
02.12.2009 07:00 1.6 C 97 % 1015.4 hPa 0.0 l/m 1.5 km/h (1 Bft) SW 0.00 h 0 W/m 1.1 C 1.5 C 3.2 km/h (1 Bft)
02.12.2009 08:00 1.1 C 97 % 1015.7 hPa 0.0 l/m 2.3 km/h (1 Bft) S-SW 0.00 h 13 W/m 0.7 C 1.0 C 5.1 km/h (1 Bft)
02.12.2009 09:00 1.1 C 98 % 1015.8 hPa 0.0 l/m 1.6 km/h (1 Bft) S-SW 0.00 h 24 W/m 0.7 C 1.1 C 3.1 km/h (1 Bft)
02.12.2009 10:00 1.4 C 98 % 1016.1 hPa 0.0 l/m 0.4 km/h (0 Bft) O-SO 0.00 h 59 W/m 1.2 C 1.4 C 1.1 km/h (1 Bft)
02.12.2009 11:00 2.1 C 98 % 1015.4 hPa 0.0 l/m 0.6 km/h (0 Bft) O-SO 0.00 h 67 W/m 1.8 C 2.1 C 1.6 km/h (1 Bft)
02.12.2009 12:00 2.5 C 97 % 1014.7 hPa 0.0 l/m 0.7 km/h (0 Bft) O-SO 0.00 h 74 W/m 2.1 C 2.5 C 1.7 km/h (1 Bft)
02.12.2009 13:00 3.0 C 96 % 1014.1 hPa 0.0 l/m 0.6 km/h (0 Bft) O-SO 0.00 h 86 W/m 2.4 C 3.0 C 1.9 km/h (1 Bft)
02.12.2009 14:00 3.2 C 93 % 1013.7 hPa 0.0 l/m 1.2 km/h (1 Bft) SO 0.05 h 81 W/m 2.2 C 3.2 C 2.7 km/h (1 Bft)
02.12.2009 15:00 3.5 C 88 % 1013.2 hPa 0.0 l/m 1.4 km/h (1 Bft) S-SO 0.03 h 58 W/m 1.6 C 3.4 C 2.8 km/h (1 Bft)
02.12.2009 16:00 3.2 C 85 % 1013.1 hPa 0.0 l/m 0.3 km/h (0 Bft) S-SO 0.20 h 19 W/m 1.0 C 3.2 C 0.6 km/h (0 Bft)
02.12.2009 17:00 2.3 C 88 % 1013.3 hPa 0.0 l/m 0.4 km/h (0 Bft) S-SO 0.00 h 0 W/m 0.5 C 2.3 C 0.8 km/h (0 Bft)
02.12.2009 18:00 1.6 C 90 % 1013.2 hPa 0.0 l/m 0.8 km/h (0 Bft) S-SO 0.00 h 0 W/m 0.1 C 1.6 C 1.8 km/h (1 Bft)
02.12.2009 19:00 1.2 C 92 % 1013.5 hPa 0.0 l/m 0.0 km/h (0 Bft) S-SO 0.00 h 0 W/m 0.1 C 1.2 C 0.1 km/h (0 Bft)
02.12.2009 20:00 1.3 C 93 % 1013.1 hPa 0.0 l/m 0.6 km/h (0 Bft) S-SO 0.00 h 0 W/m 0.4 C 1.3 C 1.5 km/h (1 Bft)
02.12.2009 21:00 1.0 C 94 % 1013.0 hPa 0.0 l/m 1.2 km/h (1 Bft) O 0.00 h 0 W/m 0.2 C 0.9 C 2.7 km/h (1 Bft)
02.12.2009 22:00 0.8 C 95 % 1013.0 hPa 0.0 l/m 3.3 km/h (1 Bft) O-SO 0.00 h 0 W/m 0.1 C 0.4 C 5.1 km/h (1 Bft)
02.12.2009 23:00 0.9 C 96 % 1012.8 hPa 0.0 l/m 1.8 km/h (1 Bft) O-SO 0.00 h 0 W/m 0.3 C 0.6 C 3.0 km/h (1 Bft)
03.12.2009 00:00 1.0 C 96 % 1012.7 hPa 0.0 l/m 1.8 km/h (1 Bft) O-SO 0.00 h 0 W/m 0.4 C 0.8 C 3.3 km/h (1 Bft)
03.12.2009 01:00 0.7 C 96 % 1012.4 hPa 0.0 l/m 3.5 km/h (1 Bft) O-SO 0.00 h 0 W/m 0.1 C -0.1 C 5.7 km/h (1 Bft)
03.12.2009 02:00 0.7 C 97 % 1012.4 hPa 0.0 l/m 1.0 km/h (0 Bft) O-SO 0.00 h 0 W/m 0.3 C 0.6 C 2.2 km/h (1 Bft)
03.12.2009 03:00 0.5 C 97 % 1011.9 hPa 0.0 l/m 1.5 km/h (1 Bft) O-SO 0.00 h 0 W/m 0.1 C 0.4 C 3.4 km/h (1 Bft)
03.12.2009 04:00 0.2 C 97 % 1011.5 hPa 0.0 l/m 1.2 km/h (1 Bft) O-SO 0.00 h 0 W/m -0.2 C 0.2 C 2.7 km/h (1 Bft)
03.12.2009 05:00 0.2 C 97 % 1011.5 hPa 0.0 l/m 1.5 km/h (1 Bft) O 0.00 h 0 W/m -0.3 C -0.1 C 3.2 km/h (1 Bft)
03.12.2009 06:00 -0.1 C 97 % 1011.4 hPa 0.0 l/m 1.5 km/h (1 Bft) O-SO 0.00 h 0 W/m -0.5 C -0.2 C 3.2 km/h (1 Bft)
03.12.2009 07:00 -0.1 C 97 % 1011.4 hPa 0.0 l/m 0.6 km/h (0 Bft) O 0.00 h 0 W/m -0.5 C -0.1 C 2.0 km/h (1 Bft)
03.12.2009 08:00 -0.1 C 97 % 1011.6 hPa 0.0 l/m 2.9 km/h (1 Bft) O-SO 0.02 h 19 W/m -0.5 C -0.4 C 4.9 km/h (1 Bft)
03.12.2009 09:00 0.3 C 97 % 1011.8 hPa 0.0 l/m 1.4 km/h (1 Bft) SO 0.38 h 94 W/m -0.1 C 0.3 C 3.1 km/h (1 Bft)
03.12.2009 10:00 0.8 C 97 % 1011.7 hPa 0.0 l/m 1.0 km/h (0 Bft) O-SO 0.00 h 89 W/m 0.4 C 0.8 C 2.4 km/h (1 Bft)
03.12.2009 11:00 1.2 C 97 % 1011.1 hPa 0.0 l/m 1.4 km/h (1 Bft) O-SO 0.08 h 104 W/m 0.8 C 1.2 C 2.7 km/h (1 Bft)
03.12.2009 12:00 1.7 C 96 % 1010.5 hPa 0.0 l/m 1.6 km/h (1 Bft) O-SO 0.00 h 108 W/m 1.1 C 1.6 C 3.5 km/h (1 Bft)
03.12.2009 13:00 2.5 C 95 % 1009.6 hPa 0.0 l/m 0.7 km/h (0 Bft) O-SO 0.27 h 142 W/m 1.8 C 2.5 C 1.6 km/h (1 Bft)
03.12.2009 14:00 3.4 C 91 % 1008.8 hPa 0.0 l/m 0.4 km/h (0 Bft) W 0.10 h 93 W/m 2.1 C 3.4 C 1.2 km/h (1 Bft)
03.12.2009 15:00 3.8 C 89 % 1008.4 hPa 0.0 l/m 0.1 km/h (0 Bft) W 0.00 h 39 W/m 2.1 C 3.8 C 0.4 km/h (0 Bft)
03.12.2009 16:00 3.8 C 88 % 1008.3 hPa 0.0 l/m 0.0 km/h (0 Bft) N 0.00 h 8 W/m 2.0 C 3.8 C 0.2 km/h (0 Bft)
03.12.2009 17:00 3.5 C 88 % 1008.1 hPa 0.0 l/m 0.0 km/h (0 Bft) W 0.00 h 0 W/m 1.8 C 3.5 C 0.2 km/h (0 Bft)
03.12.2009 18:00 3.5 C 89 % 1008.0 hPa 0.0 l/m 0.0 km/h (0 Bft) N 0.00 h 0 W/m 1.9 C 3.5 C 0.2 km/h (0 Bft)
03.12.2009 19:00 3.5 C 90 % 1008.0 hPa 0.6 l/m 0.3 km/h (0 Bft) W-NW 0.00 h 0 W/m 2.1 C 3.5 C 1.0 km/h (0 Bft)
03.12.2009 20:00 3.5 C 92 % 1008.0 hPa 1.2 l/m 1.5 km/h (1 Bft) O-SO 0.00 h 0 W/m 2.3 C 3.3 C 2.7 km/h (1 Bft)
03.12.2009 21:00 3.9 C 94 % 1007.8 hPa 1.2 l/m 2.0 km/h (1 Bft) O-SO 0.00 h 0 W/m 3.1 C 3.7 C 3.7 km/h (1 Bft)
03.12.2009 22:00 4.1 C 95 % 1007.6 hPa 0.8 l/m 1.0 km/h (0 Bft) N-NW 0.00 h 0 W/m 3.4 C 4.1 C 2.5 km/h (1 Bft)
03.12.2009 23:00 4.4 C 96 % 1007.3 hPa 0.4 l/m 3.5 km/h (1 Bft) NW 0.00 h 0 W/m 3.8 C 3.8 C 6.5 km/h (2 Bft)
04.12.2009 00:00 4.4 C 97 % 1007.2 hPa 0.4 l/m 3.5 km/h (1 Bft) SO 0.00 h 0 W/m 3.9 C 3.9 C 5.6 km/h (1 Bft)
04.12.2009 01:00 4.6 C 97 % 1007.0 hPa 0.8 l/m 4.4 km/h (1 Bft) SO 0.00 h 0 W/m 4.1 C 3.9 C 7.2 km/h (2 Bft)
04.12.2009 02:00 4.3 C 96 % 1007.7 hPa 0.0 l/m 8.4 km/h (2 Bft) W 0.00 h 0 W/m 3.7 C 2.4 C 14.0 km/h (3 Bft)
04.12.2009 03:00 4.1 C 92 % 1007.8 hPa 0.0 l/m 7.2 km/h (2 Bft) W 0.00 h 0 W/m 2.8 C 2.5 C 11.8 km/h (2 Bft)
04.12.2009 04:00 3.7 C 89 % 1007.7 hPa 0.0 l/m 1.8 km/h (1 Bft) W-NW 0.00 h 0 W/m 2.1 C 3.6 C 3.6 km/h (1 Bft)
04.12.2009 05:00 3.0 C 90 % 1007.9 hPa 0.2 l/m 1.5 km/h (1 Bft) S-SO 0.00 h 0 W/m 1.5 C 3.0 C 2.6 km/h (1 Bft)
04.12.2009 06:00 3.0 C 90 % 1007.9 hPa 0.0 l/m 1.8 km/h (1 Bft) W-NW 0.00 h 0 W/m 1.5 C 2.7 C 3.8 km/h (1 Bft)
04.12.2009 07:00 2.4 C 89 % 1008.3 hPa 0.0 l/m 2.9 km/h (1 Bft) S-SO 0.00 h 0 W/m 0.8 C 2.2 C 5.1 km/h (1 Bft)
04.12.2009 08:00 2.0 C 90 % 1008.8 hPa 0.0 l/m 2.0 km/h (1 Bft) S-SO 0.03 h 21 W/m 0.5 C 1.8 C 3.6 km/h (1 Bft)
04.12.2009 09:00 2.3 C 91 % 1009.1 hPa 0.0 l/m 0.1 km/h (0 Bft) S-SO 0.00 h 66 W/m 0.9 C 2.3 C 0.3 km/h (0 Bft)
04.12.2009 10:00 2.8 C 91 % 1010.0 hPa 0.0 l/m 0.7 km/h (0 Bft) S-SO 0.00 h 113 W/m 1.6 C 2.8 C 2.0 km/h (1 Bft)
04.12.2009 11:00 3.6 C 91 % 1010.5 hPa 0.0 l/m 0.8 km/h (0 Bft) N-NW 0.28 h 171 W/m 2.3 C 3.6 C 2.1 km/h (1 Bft)
04.12.2009 12:00 4.5 C 88 % 1010.8 hPa 0.0 l/m 2.6 km/h (1 Bft) W 1.00 h 217 W/m 2.7 C 4.4 C 4.4 km/h (1 Bft)
04.12.2009 13:00 5.3 C 83 % 1011.3 hPa 0.0 l/m 2.7 km/h (1 Bft) N-NW 0.45 h 169 W/m 2.6 C 5.1 C 5.1 km/h (1 Bft)
04.12.2009 14:00 5.9 C 78 % 1011.8 hPa 0.0 l/m 0.9 km/h (0 Bft) N-NW 0.97 h 186 W/m 2.5 C 5.9 C 2.7 km/h (1 Bft)
04.12.2009 15:00 6.2 C 71 % 1012.4 hPa 0.0 l/m 4.4 km/h (1 Bft) W-NW 0.78 h 82 W/m 1.4 C 5.6 C 7.0 km/h (2 Bft)
04.12.2009 16:00 5.4 C 74 % 1013.2 hPa 0.0 l/m 0.5 km/h (0 Bft) W 0.05 h 14 W/m 1.1 C 5.4 C 1.5 km/h (1 Bft)
04.12.2009 17:00 3.6 C 80 % 1014.1 hPa 0.0 l/m 1.5 km/h (1 Bft) O-SO 0.00 h 0 W/m 0.4 C 3.4 C 2.7 km/h (1 Bft)
04.12.2009 18:00 1.5 C 86 % 1015.2 hPa 0.0 l/m 4.6 km/h (1 Bft) O-SO 0.00 h 0 W/m -0.6 C 0.5 C 6.0 km/h (2 Bft)
04.12.2009 19:00 0.5 C 89 % 1015.9 hPa 0.0 l/m 2.8 km/h (1 Bft) O-SO 0.00 h 0 W/m -1.0 C 0.2 C 3.9 km/h (1 Bft)
04.12.2009 20:00 0.1 C 91 % 1016.4 hPa 0.0 l/m 0.6 km/h (0 Bft) O-SO 0.00 h 0 W/m -1.3 C 0.1 C 1.3 km/h (1 Bft)
04.12.2009 21:00 -0.6 C 91 % 1016.7 hPa 0.0 l/m 1.1 km/h (1 Bft) O-SO 0.00 h 0 W/m -1.9 C -0.7 C 1.9 km/h (1 Bft)
04.12.2009 22:00 -1.1 C 92 % 1017.1 hPa 0.0 l/m 0.3 km/h (0 Bft) O-SO 0.00 h 0 W/m -2.1 C -1.1 C 0.7 km/h (0 Bft)
04.12.2009 23:00 -1.3 C 94 % 1017.2 hPa 0.0 l/m 0.3 km/h (0 Bft) O-SO 0.00 h 0 W/m -2.2 C -1.3 C 0.7 km/h (0 Bft)
05.12.2009 00:00 -1.3 C 95 % 1017.1 hPa 0.0 l/m 1.6 km/h (1 Bft) O-SO 0.00 h 0 W/m -2.0 C -1.3 C 2.8 km/h (1 Bft)
05.12.2009 01:00 -0.9 C 95 % 1016.6 hPa 0.0 l/m 1.7 km/h (1 Bft) O-SO 0.00 h 0 W/m -1.5 C -1.1 C 3.0 km/h (1 Bft)
05.12.2009 02:00 -0.9 C 96 % 1016.8 hPa 0.0 l/m 1.4 km/h (1 Bft) O-SO 0.00 h 0 W/m -1.4 C -0.9 C 2.7 km/h (1 Bft)
05.12.2009 03:00 -0.8 C 96 % 1016.7 hPa 0.0 l/m 1.1 km/h (1 Bft) O-SO 0.00 h 0 W/m -1.4 C -0.9 C 2.2 km/h (1 Bft)
05.12.2009 04:00 -0.8 C 97 % 1017.0 hPa 0.0 l/m 1.0 km/h (0 Bft) O-SO 0.00 h 0 W/m -1.3 C -0.9 C 2.1 km/h (1 Bft)
05.12.2009 05:00 -0.7 C 97 % 1017.3 hPa 0.0 l/m 1.2 km/h (1 Bft) SO 0.00 h 0 W/m -1.1 C -0.7 C 2.9 km/h (1 Bft)
05.12.2009 06:00 -0.6 C 97 % 1017.3 hPa 0.0 l/m 0.2 km/h (0 Bft) S-SO 0.00 h 0 W/m -1.1 C -0.6 C 0.5 km/h (0 Bft)
05.12.2009 07:00 -0.5 C 97 % 1017.5 hPa 0.0 l/m 1.3 km/h (1 Bft) SO 0.00 h 0 W/m -0.9 C -0.5 C 2.4 km/h (1 Bft)
05.12.2009 08:00 -0.3 C 98 % 1017.4 hPa 0.0 l/m 0.4 km/h (0 Bft) S-SW 0.18 h 24 W/m -0.6 C -0.3 C 1.5 km/h (1 Bft)
05.12.2009 09:00 -0.1 C 98 % 1017.4 hPa 0.0 l/m 0.3 km/h (0 Bft) S 0.00 h 45 W/m -0.4 C -0.1 C 0.9 km/h (0 Bft)
05.12.2009 10:00 0.3 C 98 % 1017.6 hPa 0.0 l/m 1.4 km/h (1 Bft) S 0.10 h 110 W/m 0.0 C 0.2 C 3.2 km/h (1 Bft)
05.12.2009 11:00 1.4 C 98 % 1017.5 hPa 0.0 l/m 2.1 km/h (1 Bft) S 0.30 h 155 W/m 1.1 C 1.2 C 4.9 km/h (1 Bft)
05.12.2009 12:00 2.2 C 96 % 1017.3 hPa 0.0 l/m 1.0 km/h (0 Bft) W-SW 0.00 h 88 W/m 1.6 C 2.2 C 2.8 km/h (1 Bft)
05.12.2009 13:00 3.1 C 92 % 1016.9 hPa 0.0 l/m 2.1 km/h (1 Bft) S-SO 0.00 h 90 W/m 2.0 C 3.0 C 4.9 km/h (1 Bft)
05.12.2009 14:00 3.9 C 87 % 1016.7 hPa 0.0 l/m 2.2 km/h (1 Bft) SW 0.12 h 85 W/m 1.9 C 3.8 C 4.7 km/h (1 Bft)
05.12.2009 15:00 4.6 C 82 % 1016.7 hPa 0.0 l/m 0.7 km/h (0 Bft) W 0.07 h 46 W/m 1.8 C 4.6 C 2.1 km/h (1 Bft)
05.12.2009 16:00 4.4 C 81 % 1016.7 hPa 0.0 l/m 3.4 km/h (1 Bft) S-SO 0.00 h 11 W/m 1.3 C 3.9 C 6.5 km/h (2 Bft)
05.12.2009 17:00 4.2 C 79 % 1016.7 hPa 0.0 l/m 1.6 km/h (1 Bft) O 0.00 h 0 W/m 0.8 C 4.0 C 3.1 km/h (1 Bft)
05.12.2009 18:00 3.4 C 80 % 1016.9 hPa 0.0 l/m 1.7 km/h (1 Bft) O-SO 0.00 h 0 W/m 0.3 C 3.4 C 3.5 km/h (1 Bft)
05.12.2009 19:00 3.4 C 79 % 1017.1 hPa 0.0 l/m 1.2 km/h (1 Bft) S-SO 0.00 h 0 W/m 0.2 C 3.3 C 3.1 km/h (1 Bft)
05.12.2009 20:00 3.3 C 78 % 1017.1 hPa 0.0 l/m 0.2 km/h (0 Bft) S-SW 0.00 h 0 W/m -0.1 C 3.3 C 1.0 km/h (0 Bft)
05.12.2009 21:00 3.3 C 78 % 1017.1 hPa 0.0 l/m 0.3 km/h (0 Bft) S-SW 0.00 h 0 W/m -0.1 C 3.3 C 1.2 km/h (1 Bft)
05.12.2009 22:00 2.9 C 79 % 1016.8 hPa 0.0 l/m 0.5 km/h (0 Bft) W-NW 0.00 h 0 W/m -0.3 C 2.9 C 1.3 km/h (1 Bft)
05.12.2009 23:00 2.3 C 82 % 1017.1 hPa 0.0 l/m 0.8 km/h (0 Bft) W-NW 0.00 h 0 W/m -0.5 C 2.3 C 2.1 km/h (1 Bft)
06.12.2009 00:00 1.9 C 84 % 1017.1 hPa 0.0 l/m 0.2 km/h (0 Bft) SO 0.00 h 0 W/m -0.5 C 1.9 C 0.7 km/h (0 Bft)
06.12.2009 01:00 2.1 C 87 % 1016.9 hPa 0.2 l/m 0.1 km/h (0 Bft) SO 0.00 h 0 W/m 0.1 C 2.1 C 1.0 km/h (0 Bft)
06.12.2009 02:00 2.6 C 88 % 1017.0 hPa 1.0 l/m 1.2 km/h (1 Bft) SO 0.00 h 0 W/m 0.9 C 2.6 C 2.6 km/h (1 Bft)
06.12.2009 03:00 3.0 C 90 % 1016.5 hPa 0.0 l/m 0.6 km/h (0 Bft) SO 0.00 h 0 W/m 1.5 C 3.0 C 1.8 km/h (1 Bft)
06.12.2009 04:00 2.9 C 91 % 1016.1 hPa 0.0 l/m 0.9 km/h (0 Bft) NW 0.00 h 0 W/m 1.6 C 2.9 C 2.0 km/h (1 Bft)
06.12.2009 05:00 2.3 C 91 % 1016.1 hPa 0.0 l/m 0.1 km/h (0 Bft) N-NW 0.00 h 0 W/m 1.0 C 2.3 C 0.5 km/h (0 Bft)
06.12.2009 06:00 1.8 C 92 % 1015.7 hPa 0.0 l/m 0.1 km/h (0 Bft) N-NW 0.00 h 0 W/m 0.7 C 1.8 C 0.2 km/h (0 Bft)
06.12.2009 07:00 1.7 C 93 % 1015.7 hPa 0.0 l/m 0.1 km/h (0 Bft) N-NW 0.00 h 0 W/m 0.7 C 1.7 C 0.4 km/h (0 Bft)
06.12.2009 08:00 1.6 C 94 % 1015.6 hPa 0.0 l/m 0.1 km/h (0 Bft) N-NW 0.00 h 14 W/m 0.7 C 1.6 C 0.3 km/h (0 Bft)
06.12.2009 09:00 1.9 C 95 % 1015.5 hPa 0.0 l/m 0.0 km/h (0 Bft) N-NW 0.00 h 37 W/m 1.2 C 1.9 C 0.2 km/h (0 Bft)
06.12.2009 10:00 2.6 C 95 % 1015.3 hPa 0.0 l/m 0.7 km/h (0 Bft) N-NW 0.00 h 83 W/m 1.9 C 2.6 C 1.8 km/h (1 Bft)
06.12.2009 11:00 3.3 C 96 % 1015.0 hPa 0.0 l/m 0.4 km/h (0 Bft) N-NW 0.00 h 103 W/m 2.7 C 3.3 C 1.4 km/h (1 Bft)
06.12.2009 12:00 4.1 C 96 % 1014.2 hPa 0.0 l/m 0.1 km/h (0 Bft) N-NW 0.00 h 69 W/m 3.5 C 4.1 C 0.6 km/h (0 Bft)
06.12.2009 13:00 4.7 C 96 % 1013.7 hPa 0.0 l/m 0.1 km/h (0 Bft) N-NW 0.00 h 92 W/m 4.1 C 4.7 C 0.7 km/h (0 Bft)
06.12.2009 14:00 5.3 C 95 % 1013.1 hPa 0.0 l/m 0.5 km/h (0 Bft) N-NO 0.00 h 49 W/m 4.6 C 5.3 C 1.5 km/h (1 Bft)
06.12.2009 15:00 5.4 C 94 % 1012.9 hPa 0.0 l/m 0.4 km/h (0 Bft) N-NO 0.00 h 20 W/m 4.5 C 5.4 C 1.1 km/h (0 Bft)
06.12.2009 16:00 5.4 C 93 % 1012.6 hPa 0.0 l/m 0.5 km/h (0 Bft) N-NW 0.00 h 8 W/m 4.3 C 5.3 C 1.0 km/h (0 Bft)
06.12.2009 17:00 5.1 C 93 % 1012.9 hPa 0.0 l/m 0.1 km/h (0 Bft) N-NW 0.00 h 0 W/m 4.0 C 5.1 C 0.4 km/h (0 Bft)
06.12.2009 18:00 4.9 C 93 % 1013.2 hPa 0.0 l/m 0.4 km/h (0 Bft) SO 0.00 h 0 W/m 3.8 C 4.9 C 0.9 km/h (0 Bft)
06.12.2009 19:00 4.9 C 94 % 1013.7 hPa 0.4 l/m 0.1 km/h (0 Bft) SO 0.00 h 0 W/m 4.0 C 4.9 C 0.7 km/h (0 Bft)
06.12.2009 20:00 5.4 C 95 % 1014.1 hPa 0.0 l/m 1.5 km/h (1 Bft) S-SO 0.00 h 0 W/m 4.7 C 5.3 C 3.1 km/h (1 Bft)
06.12.2009 21:00 6.5 C 96 % 1014.1 hPa 0.2 l/m 1.4 km/h (1 Bft) N-NW 0.00 h 0 W/m 5.9 C 6.5 C 3.6 km/h (1 Bft)
06.12.2009 22:00 5.7 C 95 % 1014.1 hPa 0.0 l/m 0.5 km/h (0 Bft) N-NW 0.00 h 0 W/m 5.0 C 5.7 C 1.8 km/h (1 Bft)
06.12.2009 23:00 5.7 C 96 % 1014.5 hPa 0.0 l/m 0.3 km/h (0 Bft) N-NW 0.00 h 0 W/m 5.1 C 5.7 C 1.3 km/h (1 Bft)
Min-Datum _ 05.12.09 04.12.09 30.11.09 - 30.11.09 - - - 04.12.09 05.12.09 30.11.09
_ Min-Zeit 00:00 15:20 04:00 - 00:06 - - - 23:20 00:17 00:06
Minimum _ -1.5 C 68 % 996.2 hPa - 0.0 km/h (0 Bft) - - - -2.4 C -3.3 C 0.0 km/h (0 Bft)
Max-Datum _ 06.12.09 30.11.09 05.12.09 30.11.09 30.11.09 - 01.12.09 04.12.09 06.12.09 06.12.09 04.12.09
_ Max-Zeit 21:15 13:30 10:30 05:01 00:37 - 15:05 14:06 21:15 21:15 03:29
Maximum _ 6.8 C 99 % 1017.7 hPa 2.0 l/m 19.1 km/h
W-NW (3 Bft)
- 0.02 h 292 W/m 6.2 C 6.8 C 27.8 km/h
W (4 Bft)
Durchschnitt _ 2.4 C 93 % 1010.9 hPa #31.6 l/m 1.5 km/h (1 Bft) O-SO #5:39 h 65 W/m 1.3 C 2.2 C 3.0 km/h (1 Bft)
© Kaiko 2009